createdAt,value
2022-09-24T00:02:11.629Z,100277.62
2022-09-24T00:04:43.970Z,100276.05
2022-09-24T00:07:15.936Z,100276.96
2022-09-24T00:09:48.454Z,100278.20
2022-09-24T00:12:20.504Z,100273.06
2022-09-24T00:14:52.549Z,100272.24
2022-09-24T00:17:24.602Z,100270.16
2022-09-24T00:19:56.747Z,100270.67
2022-09-24T00:22:28.756Z,100270.05
2022-09-24T00:25:18.542Z,100269.61
2022-09-24T00:27:50.534Z,100268.17
2022-09-24T00:30:23.004Z,100267.80
2022-09-24T00:32:55.014Z,100265.46
2022-09-24T00:35:27.215Z,100262.91
2022-09-24T00:37:59.295Z,100260.86
2022-09-24T00:40:33.274Z,100255.92
2022-09-24T00:43:19.201Z,100252.13
2022-09-24T00:45:51.835Z,100247.70
2022-09-24T00:48:26.929Z,100245.42
2022-09-24T00:50:59.496Z,100239.55
2022-09-24T00:53:33.503Z,100240.23
2022-09-24T00:56:07.983Z,100236.54
2022-09-24T00:58:40.742Z,100236.70
2022-09-24T01:01:12.936Z,100235.40
2022-09-24T01:03:45.850Z,100225.41
2022-09-24T01:06:18.034Z,100224.68
2022-09-24T01:08:58.064Z,100223.64
2022-09-24T01:11:50.412Z,100223.44
2022-09-24T01:15:04.788Z,100223.94
2022-09-24T01:17:41.973Z,100222.45
2022-09-24T01:20:47.804Z,100218.80
2022-09-24T01:23:37.130Z,100217.23
2022-09-24T01:26:30.417Z,100214.84
2022-09-24T01:29:19.197Z,100217.44
2022-09-24T01:31:55.371Z,100215.39
2022-09-24T01:34:32.723Z,100216.84
2022-09-24T01:37:05.914Z,100215.12
2022-09-24T01:39:40.293Z,100212.67
2022-09-24T01:42:13.373Z,100212.05
2022-09-24T01:44:46.445Z,100208.60
2022-09-24T01:47:25.703Z,100206.72
2022-09-24T01:49:57.959Z,100209.48
2022-09-24T01:52:35.129Z,100202.08
2022-09-24T01:55:10.658Z,100205.16
2022-09-24T01:57:46.454Z,100203.65
2022-09-24T02:00:21.201Z,100204.27
2022-09-24T02:02:59.995Z,100204.81
2022-09-24T02:05:35.824Z,100205.44
2022-09-24T02:08:13.807Z,100205.58
2022-09-24T02:10:52.038Z,100207.30
2022-09-24T02:13:27.778Z,100207.89
2022-09-24T02:16:03.566Z,100208.33
2022-09-24T02:18:40.236Z,100206.55
2022-09-24T02:21:14.959Z,100205.23
2022-09-24T02:23:52.244Z,100206.85
2022-09-24T02:26:24.592Z,100205.48
2022-09-24T02:28:56.671Z,100207.08
2022-09-24T02:31:32.976Z,100204.94
2022-09-24T02:34:25.670Z,100201.70
2022-09-24T02:36:59.622Z,100207.02
2022-09-24T02:39:31.599Z,100206.29
2022-09-24T02:42:05.643Z,100204.73
2022-09-24T02:44:38.670Z,100205.84
2022-09-24T02:47:10.918Z,100204.37
2022-09-24T02:49:43.079Z,100204.84
2022-09-24T02:52:15.338Z,100201.71
2022-09-24T02:54:47.505Z,100201.41
2022-09-24T02:57:21.402Z,100204.52
2022-09-24T02:59:53.916Z,100202.32
2022-09-24T03:02:26.031Z,100197.95
2022-09-24T03:04:58.074Z,100199.57
2022-09-24T03:07:30.356Z,100197.76
2022-09-24T03:10:02.410Z,100200.54
2022-09-24T03:12:36.168Z,100199.77
2022-09-24T03:15:13.547Z,100199.85
2022-09-24T03:17:45.587Z,100198.59
2022-09-24T03:20:17.882Z,100198.63
2022-09-24T03:22:53.061Z,100194.86
2022-09-24T03:25:25.423Z,100195.77
2022-09-24T03:27:57.473Z,100193.95
2022-09-24T03:30:47.469Z,100195.09
2022-09-24T03:33:19.508Z,100195.20
2022-09-24T03:35:51.548Z,100193.27
2022-09-24T03:38:23.540Z,100191.77
2022-09-24T03:40:55.917Z,100186.63
2022-09-24T03:43:28.289Z,100189.21
2022-09-24T03:46:01.025Z,100188.14
2022-09-24T03:48:33.006Z,100187.13
2022-09-24T03:51:08.476Z,100185.61
2022-09-24T03:53:40.871Z,100189.75
2022-09-24T03:56:13.391Z,100189.27
2022-09-24T03:58:47.727Z,100186.98
2022-09-24T04:01:21.780Z,100188.46
2022-09-24T04:03:54.389Z,100187.89
2022-09-24T04:06:27.183Z,100183.56
2022-09-24T04:09:00.520Z,100185.20
2022-09-24T04:11:35.284Z,100187.45
2022-09-24T04:14:07.407Z,100186.55
2022-09-24T04:16:40.202Z,100185.90
2022-09-24T04:19:12.431Z,100185.33
2022-09-24T04:21:44.556Z,100181.70
2022-09-24T04:24:16.625Z,100180.95
2022-09-24T04:26:48.705Z,100177.42
2022-09-24T04:29:20.970Z,100175.41
2022-09-24T04:31:53.157Z,100180.05
2022-09-24T04:34:25.257Z,100179.69
2022-09-24T04:36:57.327Z,100181.13
2022-09-24T04:39:29.466Z,100177.06
2022-09-24T04:42:01.707Z,100171.89
2022-09-24T04:44:33.732Z,100169.67
2022-09-24T04:47:07.676Z,100172.27
2022-09-24T04:49:39.690Z,100176.42
2022-09-24T04:52:11.780Z,100175.96
2022-09-24T04:54:45.396Z,100176.52
2022-09-24T04:57:17.674Z,100176.28
2022-09-24T04:59:49.708Z,100174.66
2022-09-24T05:02:21.952Z,100171.81
2022-09-24T05:04:54.019Z,100170.02
2022-09-24T05:07:26.062Z,100168.13
2022-09-24T05:09:58.035Z,100172.16
2022-09-24T05:12:30.213Z,100172.27
2022-09-24T05:15:02.330Z,100172.38
2022-09-24T05:17:34.368Z,100176.23
2022-09-24T05:20:07.423Z,100175.16
2022-09-24T05:22:43.621Z,100173.91
2022-09-24T05:25:17.039Z,100175.85
2022-09-24T05:27:50.799Z,100171.60
2022-09-24T05:30:24.346Z,100169.78
2022-09-24T05:32:56.388Z,100169.29
2022-09-24T05:35:29.214Z,100171.10
2022-09-24T05:38:01.323Z,100174.34
2022-09-24T05:40:48.894Z,100174.55
2022-09-24T05:43:21.564Z,100173.46
2022-09-24T05:45:54.648Z,100173.59
2022-09-24T05:48:27.064Z,100172.96
2022-09-24T05:51:01.601Z,100174.69
2022-09-24T05:53:34.036Z,100177.81
2022-09-24T05:56:06.371Z,100179.30
2022-09-24T05:58:38.389Z,100178.45
2022-09-24T06:01:10.685Z,100175.56
2022-09-24T06:03:42.696Z,100174.70
2022-09-24T06:06:14.834Z,100173.98
2022-09-24T06:08:46.940Z,100173.61
2022-09-24T06:11:19.693Z,100168.89
2022-09-24T06:13:52.575Z,100176.94
2022-09-24T06:16:24.665Z,100171.06
2022-09-24T06:18:56.846Z,100168.75
2022-09-24T06:21:29.222Z,100168.98
2022-09-24T06:24:01.340Z,100168.34
2022-09-24T06:26:34.301Z,100168.06
2022-09-24T06:29:07.210Z,100167.83
2022-09-24T06:31:39.346Z,100164.30
2022-09-24T06:34:11.565Z,100165.24
2022-09-24T06:36:43.635Z,100167.53
2022-09-24T06:39:15.641Z,100162.95
2022-09-24T06:41:50.515Z,100166.63
2022-09-24T06:44:22.831Z,100162.09
2022-09-24T06:46:55.096Z,100162.75
2022-09-24T06:49:32.976Z,100163.45
2022-09-24T06:52:06.408Z,100166.36
2022-09-24T06:54:38.925Z,100165.58
2022-09-24T06:57:11.391Z,100165.11
2022-09-24T06:59:43.445Z,100165.34
2022-09-24T07:02:15.586Z,100167.14
2022-09-24T07:04:47.954Z,100163.21
2022-09-24T07:07:33.132Z,100167.33
2022-09-24T07:10:04.928Z,100168.33
2022-09-24T07:12:37.929Z,100168.83
2022-09-24T07:15:12.273Z,100169.52
2022-09-24T07:17:44.241Z,100175.14
2022-09-24T07:20:16.345Z,100180.15
2022-09-24T07:22:48.327Z,100177.12
2022-09-24T07:25:20.680Z,100177.98
2022-09-24T07:27:52.674Z,100175.77
2022-09-24T07:30:24.819Z,100173.12
2022-09-24T07:32:59.072Z,100177.42
2022-09-24T07:35:31.660Z,100175.91
2022-09-24T07:38:05.571Z,100177.80
2022-09-24T07:40:37.803Z,100177.66
2022-09-24T07:43:14.226Z,100180.27
2022-09-24T07:45:46.865Z,100181.95
2022-09-24T07:48:19.262Z,100183.17
2022-09-24T07:50:51.425Z,100182.37
2022-09-24T07:53:24.329Z,100183.86
2022-09-24T07:55:59.687Z,100188.61
2022-09-24T07:58:32.085Z,100188.16
2022-09-24T08:01:04.511Z,100184.05
2022-09-24T08:03:36.722Z,100183.96
2022-09-24T08:06:09.331Z,100186.11
2022-09-24T08:08:41.736Z,100184.90
2022-09-24T08:11:14.641Z,100182.32
2022-09-24T08:13:47.115Z,100180.15
2022-09-24T08:16:21.390Z,100184.37
2022-09-24T08:18:53.408Z,100186.84
2022-09-24T08:21:25.568Z,100187.41
2022-09-24T08:23:57.549Z,100185.27
2022-09-24T08:26:29.628Z,100183.87
2022-09-24T08:29:01.646Z,100184.02
2022-09-24T08:31:35.014Z,100185.86
2022-09-24T08:34:07.169Z,100187.66
2022-09-24T08:36:42.756Z,100184.55
2022-09-24T08:39:15.747Z,100185.36
2022-09-24T08:41:56.170Z,100188.20
2022-09-24T08:44:50.786Z,100185.95
2022-09-24T08:47:35.538Z,100186.77
2022-09-24T08:50:15.508Z,100185.75
2022-09-24T08:52:59.225Z,100187.71
2022-09-24T08:55:37.579Z,100186.80
2022-09-24T08:58:31.642Z,100189.02
2022-09-24T09:01:12.978Z,100187.73
2022-09-24T09:03:50.518Z,100184.80
2022-09-24T09:06:49.217Z,100180.49
2022-09-24T09:09:24.414Z,100178.01
2022-09-24T09:12:03.264Z,100176.14
2022-09-24T09:14:42.893Z,100178.96
2022-09-24T09:17:28.110Z,100182.52
2022-09-24T09:20:01.789Z,100180.33
2022-09-24T09:22:38.851Z,100179.45
2022-09-24T09:25:21.297Z,100178.92
2022-09-24T09:28:01.548Z,100175.85
2022-09-24T09:30:43.792Z,100174.30
2022-09-24T09:33:28.452Z,100180.44
2022-09-24T09:36:10.097Z,100177.73
2022-09-24T09:38:55.344Z,100178.13
2022-09-24T09:41:37.652Z,100177.18
2022-09-24T09:44:23.715Z,100181.10
2022-09-24T09:47:02.432Z,100176.48
2022-09-24T09:49:39.647Z,100178.06
2022-09-24T09:52:17.320Z,100176.36
2022-09-24T09:54:49.823Z,100173.70
2022-09-24T09:57:26.022Z,100173.21
2022-09-24T09:59:58.446Z,100175.65
2022-09-24T10:02:35.445Z,100172.61
2022-09-24T10:05:26.332Z,100174.64
2022-09-24T10:07:59.558Z,100169.91
2022-09-24T10:10:31.936Z,100172.02
2022-09-24T10:13:15.335Z,100171.54
2022-09-24T10:15:54.766Z,100172.23
2022-09-24T10:18:32.975Z,100175.59
2022-09-24T10:21:12.087Z,100173.84
2022-09-24T10:23:46.420Z,100176.29
2022-09-24T10:26:19.056Z,100179.80
2022-09-24T10:29:10.813Z,100174.61
2022-09-24T10:31:45.866Z,100173.96
2022-09-24T10:34:26.818Z,100173.66
2022-09-24T10:37:10.212Z,100170.02
2022-09-24T10:39:43.395Z,100171.19
2022-09-24T10:42:26.684Z,100170.91
2022-09-24T10:45:02.205Z,100170.20
2022-09-24T10:47:44.544Z,100170.30
2022-09-24T10:50:28.754Z,100173.05
2022-09-24T10:53:08.602Z,100167.63
2022-09-24T10:55:54.264Z,100163.89
2022-09-24T10:58:47.746Z,100166.76
2022-09-24T11:01:28.274Z,100169.06
2022-09-24T11:04:41.384Z,100161.77
2022-09-24T11:07:44.054Z,100161.92
2022-09-24T11:10:42.278Z,100161.77
2022-09-24T11:13:24.627Z,100155.42
2022-09-24T11:16:16.851Z,100154.08
2022-09-24T11:18:57.748Z,100150.88
2022-09-24T11:21:41.789Z,100151.40
2022-09-24T11:24:38.914Z,100151.02
2022-09-24T11:27:31.007Z,100147.95
2022-09-24T11:30:13.281Z,100146.77
2022-09-24T11:33:15.668Z,100148.14
2022-09-24T11:36:04.713Z,100145.20
2022-09-24T11:38:56.110Z,100145.55
2022-09-24T11:41:43.728Z,100147.65
2022-09-24T11:44:31.414Z,100148.05
2022-09-24T11:47:17.428Z,100150.30
2022-09-24T11:50:06.290Z,100144.49
2022-09-24T11:52:44.832Z,100142.61
2022-09-24T11:55:21.008Z,100144.95
2022-09-24T11:58:01.136Z,100143.23
2022-09-24T12:00:40.715Z,100142.38
2022-09-24T12:03:25.205Z,100141.67
2022-09-24T12:06:03.298Z,100139.33
2022-09-24T12:08:42.636Z,100133.51
2022-09-24T12:11:20.953Z,100136.35
2022-09-24T12:13:57.594Z,100132.90
2022-09-24T12:16:34.318Z,100132.95
2022-09-24T12:19:15.770Z,100129.89
2022-09-24T12:21:51.849Z,100128.97
2022-09-24T12:24:31.377Z,100127.21
2022-09-24T12:27:08.561Z,100123.31
2022-09-24T12:30:09.374Z,100122.13
2022-09-24T12:32:57.222Z,100119.56
2022-09-24T12:35:47.481Z,100119.13
2022-09-24T12:38:26.368Z,100117.05
2022-09-24T12:41:26.887Z,100121.62
2022-09-24T12:44:07.117Z,100114.40
2022-09-24T12:46:44.594Z,100119.00
2022-09-24T12:49:30.451Z,100117.21
2022-09-24T12:52:05.927Z,100112.14
2022-09-24T12:54:39.669Z,100112.09
2022-09-24T12:57:21.291Z,100112.77
2022-09-24T12:59:58.840Z,100110.83
2022-09-24T13:02:33.423Z,100111.67
2022-09-24T13:05:28.329Z,100109.71
2022-09-24T13:08:01.222Z,100107.67
2022-09-24T13:10:36.709Z,100108.53
2022-09-24T13:13:26.830Z,100104.41
2022-09-24T13:16:05.662Z,100104.77
2022-09-24T13:18:39.011Z,100106.41
2022-09-24T13:21:20.244Z,100105.00
2022-09-24T13:23:52.973Z,100105.88
2022-09-24T13:26:36.003Z,100106.34
2022-09-24T13:29:23.843Z,100106.02
2022-09-24T13:32:03.981Z,100102.74
2022-09-24T13:34:37.325Z,100101.23
2022-09-24T13:37:21.670Z,100098.01
2022-09-24T13:40:01.247Z,100094.59
2022-09-24T13:42:38.970Z,100096.25
2022-09-24T13:45:16.674Z,100096.81
2022-09-24T13:47:52.325Z,100094.82
2022-09-24T13:50:28.974Z,100097.02
2022-09-24T13:53:06.590Z,100097.02
2022-09-24T13:55:46.037Z,100093.13
2022-09-24T13:58:31.492Z,100095.91
2022-09-24T14:01:12.493Z,100092.52
2022-09-24T14:03:52.706Z,100089.86
2022-09-24T14:06:35.776Z,100092.25
2022-09-24T14:09:17.817Z,100088.05
2022-09-24T14:11:54.373Z,100087.48
2022-09-24T14:14:29.458Z,100083.50
2022-09-24T14:17:14.950Z,100081.13
2022-09-24T14:19:47.142Z,100078.16
2022-09-24T14:22:24.105Z,100079.08
2022-09-24T14:25:00.582Z,100077.80
2022-09-24T14:27:36.586Z,100073.44
2022-09-24T14:30:19.459Z,100071.77
2022-09-24T14:32:56.597Z,100068.66
2022-09-24T14:35:33.096Z,100067.52
2022-09-24T14:38:09.681Z,100065.53
2022-09-24T14:40:47.423Z,100066.11
2022-09-24T14:43:23.969Z,100063.06
2022-09-24T14:46:07.414Z,100067.34
2022-09-24T14:48:41.178Z,100067.30
2022-09-24T14:51:27.620Z,100063.09
2022-09-24T14:54:04.394Z,100065.66
2022-09-24T14:56:37.247Z,100065.51
2022-09-24T14:59:18.367Z,100069.26
2022-09-24T15:01:51.090Z,100068.64
2022-09-24T15:04:31.935Z,100070.03
2022-09-24T15:07:04.311Z,100066.23
2022-09-24T15:09:36.506Z,100065.73
2022-09-24T15:12:18.833Z,100062.42
2022-09-24T15:15:02.752Z,100060.50
2022-09-24T15:17:36.508Z,100064.26
2022-09-24T15:20:13.795Z,100064.70
2022-09-24T15:22:47.603Z,100065.50
2022-09-24T15:25:19.856Z,100065.46
2022-09-24T15:27:54.662Z,100067.36
2022-09-24T15:30:26.715Z,100068.02
2022-09-24T15:32:59.191Z,100063.16
2022-09-24T15:35:31.247Z,100060.52
2022-09-24T15:38:03.222Z,100060.81
2022-09-24T15:40:36.741Z,100058.30
2022-09-24T15:43:20.359Z,100060.31
2022-09-24T15:45:53.029Z,100057.83
2022-09-24T15:48:25.088Z,100059.38
2022-09-24T15:50:57.302Z,100057.51
2022-09-24T15:53:30.421Z,100062.22
2022-09-24T15:56:04.574Z,100063.35
2022-09-24T15:58:36.629Z,100061.86
2022-09-24T16:01:09.023Z,100062.20
2022-09-24T16:03:41.132Z,100061.55
2022-09-24T16:06:14.333Z,100063.10
2022-09-24T16:08:46.371Z,100065.23
2022-09-24T16:11:18.384Z,100062.55
2022-09-24T16:13:52.279Z,100060.16
2022-09-24T16:16:24.383Z,100062.49
2022-09-24T16:18:57.056Z,100063.65
2022-09-24T16:21:29.185Z,100062.65
2022-09-24T16:24:01.517Z,100063.06
2022-09-24T16:26:34.607Z,100066.29
2022-09-24T16:29:10.101Z,100066.85
2022-09-24T16:31:42.211Z,100069.09
2022-09-24T16:34:14.559Z,100068.70
2022-09-24T16:36:46.806Z,100067.17
2022-09-24T16:39:19.542Z,100069.08
2022-09-24T16:41:52.242Z,100069.60
2022-09-24T16:44:24.539Z,100072.64
2022-09-24T16:46:56.672Z,100071.48
2022-09-24T16:49:28.773Z,100073.41
2022-09-24T16:52:02.081Z,100070.81
2022-09-24T16:54:34.062Z,100072.29
2022-09-24T16:57:06.873Z,100074.05
2022-09-24T16:59:38.906Z,100073.70
2022-09-24T17:02:13.417Z,100072.83
2022-09-24T17:04:45.447Z,100075.17
2022-09-24T17:07:17.469Z,100068.98
2022-09-24T17:10:07.454Z,100070.23
2022-09-24T17:12:39.748Z,100070.53
2022-09-24T17:15:14.817Z,100069.84
2022-09-24T17:17:50.256Z,100072.46
2022-09-24T17:20:22.854Z,100070.98
2022-09-24T17:22:56.487Z,100067.73
2022-09-24T17:25:28.728Z,100066.43
2022-09-24T17:28:02.207Z,100069.65
2022-09-24T17:30:34.231Z,100067.77
2022-09-24T17:33:19.716Z,100069.05
2022-09-24T17:36:00.697Z,100066.48
2022-09-24T17:38:34.338Z,100067.94
2022-09-24T17:41:08.419Z,100068.98
2022-09-24T17:43:42.249Z,100070.73
2022-09-24T17:46:15.897Z,100073.29
2022-09-24T17:48:50.862Z,100074.27
2022-09-24T17:51:22.876Z,100076.23
2022-09-24T17:53:56.559Z,100079.09
2022-09-24T17:56:32.097Z,100076.69
2022-09-24T17:59:04.244Z,100074.95
2022-09-24T18:01:37.990Z,100074.23
2022-09-24T18:04:13.471Z,100073.64
2022-09-24T18:06:47.326Z,100074.82
2022-09-24T18:09:20.128Z,100076.88
2022-09-24T18:11:53.605Z,100080.48
2022-09-24T18:14:26.468Z,100083.64
2022-09-24T18:16:59.985Z,100084.87
2022-09-24T18:19:32.106Z,100092.23
2022-09-24T18:22:04.733Z,100089.60
2022-09-24T18:24:36.958Z,100091.17
2022-09-24T18:27:08.992Z,100093.46
2022-09-24T18:29:40.944Z,100092.38
2022-09-24T18:32:13.940Z,100093.88
2022-09-24T18:34:46.288Z,100095.56
2022-09-24T18:37:18.349Z,100098.52
2022-09-24T18:39:50.375Z,100094.27
2022-09-24T18:42:22.393Z,100095.75
2022-09-24T18:44:54.435Z,100093.86
2022-09-24T18:47:26.527Z,100093.75
2022-09-24T18:49:58.543Z,100096.50
2022-09-24T18:52:30.533Z,100096.52
2022-09-24T18:55:02.714Z,100095.63
2022-09-24T18:57:35.353Z,100096.70
2022-09-24T19:00:29.834Z,100093.81
2022-09-24T19:03:01.921Z,100097.79
2022-09-24T19:05:35.097Z,100097.02
2022-09-24T19:08:07.117Z,100097.76
2022-09-24T19:10:39.128Z,100097.38
2022-09-24T19:13:11.332Z,100100.70
2022-09-24T19:15:43.914Z,100103.60
2022-09-24T19:18:18.446Z,100101.27
2022-09-24T19:20:50.505Z,100098.50
2022-09-24T19:23:22.539Z,100098.16
2022-09-24T19:26:00.699Z,100100.57
2022-09-24T19:28:33.278Z,100095.48
2022-09-24T19:31:07.277Z,100098.75
2022-09-24T19:33:40.749Z,100097.06
2022-09-24T19:36:13.318Z,100099.29
2022-09-24T19:38:45.986Z,100104.60
2022-09-24T19:41:23.682Z,100104.71
2022-09-24T19:43:57.909Z,100107.74
2022-09-24T19:46:31.397Z,100111.09
2022-09-24T19:49:03.518Z,100106.21
2022-09-24T19:51:36.996Z,100102.83
2022-09-24T19:54:11.319Z,100102.44
2022-09-24T19:56:43.635Z,100101.41
2022-09-24T19:59:16.505Z,100098.96
2022-09-24T20:01:48.715Z,100100.45
2022-09-24T20:04:21.472Z,100097.38
2022-09-24T20:06:54.378Z,100097.00
2022-09-24T20:09:26.543Z,100094.42
2022-09-24T20:11:58.594Z,100096.96
2022-09-24T20:14:33.677Z,100095.71
2022-09-24T20:17:07.227Z,100094.21
2022-09-24T20:19:39.450Z,100096.04
2022-09-24T20:22:16.594Z,100092.34
2022-09-24T20:24:50.642Z,100089.06
2022-09-24T20:27:40.234Z,100091.05
2022-09-24T20:30:13.118Z,100086.43
2022-09-24T20:32:45.546Z,100084.30
2022-09-24T20:35:17.904Z,100088.16
2022-09-24T20:37:50.534Z,100085.86
2022-09-24T20:40:22.705Z,100084.48
2022-09-24T20:42:54.799Z,100082.23
2022-09-24T20:45:26.886Z,100080.00
2022-09-24T20:47:58.937Z,100077.31
2022-09-24T20:50:32.175Z,100078.90
2022-09-24T20:53:04.189Z,100080.41
2022-09-24T20:55:36.331Z,100082.35
2022-09-24T20:58:10.281Z,100083.20
2022-09-24T21:00:54.473Z,100079.20
2022-09-24T21:03:43.247Z,100082.86
2022-09-24T21:06:16.872Z,100084.90
2022-09-24T21:08:49.366Z,100087.41
2022-09-24T21:11:23.077Z,100085.40
2022-09-24T21:13:57.200Z,100083.94
2022-09-24T21:16:31.609Z,100084.58
2022-09-24T21:19:08.162Z,100088.85
2022-09-24T21:21:41.273Z,100090.48
2022-09-24T21:24:16.574Z,100091.81
2022-09-24T21:26:49.185Z,100091.02
2022-09-24T21:29:22.288Z,100094.34
2022-09-24T21:31:54.284Z,100095.09
2022-09-24T21:34:28.141Z,100090.13
2022-09-24T21:37:00.156Z,100089.02
2022-09-24T21:39:32.230Z,100088.79
2022-09-24T21:42:05.417Z,100094.95
2022-09-24T21:44:37.493Z,100089.87
2022-09-24T21:47:09.590Z,100088.38
2022-09-24T21:49:41.892Z,100083.40
2022-09-24T21:52:13.913Z,100082.02
2022-09-24T21:54:45.947Z,100078.54
2022-09-24T21:57:17.995Z,100081.75
2022-09-24T22:00:04.403Z,100083.27
2022-09-24T22:02:41.102Z,100081.31
2022-09-24T22:05:20.002Z,100085.08
2022-09-24T22:07:52.171Z,100085.00
2022-09-24T22:10:24.241Z,100086.21
2022-09-24T22:12:56.586Z,100090.91
2022-09-24T22:15:28.609Z,100092.04
2022-09-24T22:18:01.028Z,100092.76
2022-09-24T22:20:33.180Z,100088.11
2022-09-24T22:23:05.200Z,100092.31
2022-09-24T22:25:37.200Z,100086.67
2022-09-24T22:28:09.232Z,100085.27
2022-09-24T22:30:45.402Z,100086.88
2022-09-24T22:33:37.491Z,100086.90
2022-09-24T22:36:09.895Z,100080.91
2022-09-24T22:38:42.256Z,100079.91
2022-09-24T22:41:14.496Z,100079.17
2022-09-24T22:43:46.548Z,100078.84
2022-09-24T22:46:19.565Z,100080.04
2022-09-24T22:48:51.661Z,100076.13
2022-09-24T22:51:24.512Z,100073.11
2022-09-24T22:53:57.397Z,100077.02
2022-09-24T22:56:30.155Z,100074.01
2022-09-24T22:59:03.497Z,100071.55
2022-09-24T23:01:40.669Z,100070.53
2022-09-24T23:04:15.319Z,100068.24
2022-09-24T23:06:47.519Z,100075.02
2022-09-24T23:09:20.732Z,100067.83
2022-09-24T23:11:53.508Z,100065.03
2022-09-24T23:14:25.503Z,100062.92
2022-09-24T23:16:58.787Z,100063.73
2022-09-24T23:19:48.810Z,100065.20
2022-09-24T23:22:22.414Z,100067.35
2022-09-24T23:24:54.466Z,100063.98
2022-09-24T23:27:26.619Z,100063.20
2022-09-24T23:29:59.546Z,100062.71
2022-09-24T23:32:32.213Z,100058.05
2022-09-24T23:35:04.290Z,100059.34
2022-09-24T23:37:36.424Z,100056.92
2022-09-24T23:40:11.207Z,100055.08
2022-09-24T23:42:41.744Z,100056.58
2022-09-24T23:45:14.119Z,100053.16
2022-09-24T23:47:46.127Z,100056.31
2022-09-24T23:50:18.356Z,100055.30
2022-09-24T23:52:50.346Z,100057.13
2022-09-24T23:55:22.349Z,100054.39
2022-09-24T23:57:54.432Z,100055.76
